Time;durP1;ratioP1;P1;durP2;ratioP2;P2;SDS_P1;SDS_P2;PMS_P1;PMS_P2;Temp;Humidity;BMP_temperature;BMP_pressure;BME280_temperature;BME280_humidity;BME280_pressure;Samples;Min_cycle;Max_cycle;Signal;HPM_P1;HPM_P2
2023/01/08 00:01:12;;;;;;;19.63;15.48;;;12.10;96.70;;;;;;5048638;28;20052;-74
2023/01/08 00:03:40;;;;;;;17.05;15.25;;;12.10;96.70;;;;;;5048085;28;20209;-73
2023/01/08 00:06:11;;;;;;;19.15;16.73;;;12.10;96.70;;;;;;5030152;28;20504;-75
2023/01/08 00:08:39;;;;;;;20.83;16.55;;;12.10;96.70;;;;;;5024286;28;20077;-74
2023/01/08 00:11:07;;;;;;;18.25;15.85;;;12.10;96.70;;;;;;5028705;28;20057;-71
2023/01/08 00:13:35;;;;;;;18.20;15.15;;;12.10;96.70;;;;;;5032124;28;20037;-73
2023/01/08 00:16:04;;;;;;;18.63;15.80;;;12.10;96.70;;;;;;5021477;28;20276;-75
2023/01/08 00:18:34;;;;;;;17.60;15.77;;;12.10;96.70;;;;;;5034289;28;20060;-74
2023/01/08 00:21:03;;;;;;;18.92;15.80;;;12.10;96.70;;;;;;5032335;28;20431;-75
2023/01/08 00:23:31;;;;;;;19.05;14.60;;;12.10;96.70;;;;;;5016246;28;20601;-75
2023/01/08 00:26:01;;;;;;;16.35;14.55;;;12.10;96.70;;;;;;5032380;28;20037;-74
2023/01/08 00:28:29;;;;;;;18.15;16.02;;;12.10;96.70;;;;;;5016162;28;20433;-74
2023/01/08 00:30:57;;;;;;;17.85;15.95;;;12.10;96.70;;;;;;5013757;28;20045;-74
2023/01/08 00:33:31;;;;;;;18.90;16.10;;;12.10;96.70;;;;;;5028208;28;20049;-74
2023/01/08 00:36:05;;;;;;;18.77;16.17;;;12.10;96.70;;;;;;5024462;28;20045;-75
2023/01/08 00:38:33;;;;;;;17.83;15.32;;;12.10;96.70;;;;;;5032658;28;21275;-74
2023/01/08 00:41:02;;;;;;;16.95;15.15;;;12.10;96.70;;;;;;5032514;28;20376;-75
2023/01/08 00:43:30;;;;;;;18.90;15.48;;;12.10;96.70;;;;;;5023478;28;20309;-74
2023/01/08 00:45:57;;;;;;;18.20;15.98;;;12.10;96.70;;;;;;5024642;28;20040;-74
2023/01/08 00:48:26;;;;;;;22.10;18.42;;;12.10;96.70;;;;;;5026185;28;20048;-74
2023/01/08 00:50:57;;;;;;;18.77;16.77;;;12.10;96.70;;;;;;5021713;28;20447;-75
2023/01/08 00:53:27;;;;;;;20.73;17.45;;;12.10;96.70;;;;;;5014862;28;20061;-75
2023/01/08 00:55:59;;;;;;;21.92;18.77;;;12.10;96.70;;;;;;5022331;28;20052;-74
2023/01/08 00:58:28;;;;;;;21.38;18.13;;;12.10;96.70;;;;;;5025461;28;20059;-74
2023/01/08 01:00:56;;;;;;;22.65;19.02;;;12.10;96.70;;;;;;5021199;28;20069;-74
2023/01/08 01:03:24;;;;;;;23.75;19.17;;;12.10;96.70;;;;;;5020794;28;20136;-75
2023/01/08 01:06:00;;;;;;;22.75;19.95;;;12.10;96.70;;;;;;5021466;28;20037;-75
2023/01/08 01:08:29;;;;;;;24.10;20.50;;;12.10;96.70;;;;;;5033665;28;20061;-75
2023/01/08 01:10:58;;;;;;;23.63;19.33;;;12.10;96.70;;;;;;5036359;28;20049;-75
2023/01/08 01:13:26;;;;;;;23.60;18.85;;;12.00;96.70;;;;;;5017153;28;20510;-74
2023/01/08 01:15:58;;;;;;;22.13;18.88;;;12.10;96.70;;;;;;5034483;28;20044;-72
2023/01/08 01:18:27;;;;;;;19.95;16.73;;;12.10;96.70;;;;;;5040010;28;20451;-75
2023/01/08 01:20:55;;;;;;;19.23;17.13;;;12.00;96.70;;;;;;5055502;28;20148;-74
2023/01/08 01:23:23;;;;;;;23.42;18.30;;;12.00;96.70;;;;;;5017999;28;20052;-75
2023/01/08 01:25:53;;;;;;;22.05;17.92;;;12.00;96.70;;;;;;5056821;28;20041;-71
2023/01/08 01:28:21;;;;;;;20.63;17.83;;;11.90;96.70;;;;;;5018661;28;20526;-72
2023/01/08 01:30:54;;;;;;;20.08;16.38;;;11.90;96.70;;;;;;5040679;28;20128;-75
2023/01/08 01:33:22;;;;;;;20.65;15.70;;;11.90;96.70;;;;;;5045891;28;20052;-75
2023/01/08 01:35:59;;;;;;;20.73;15.75;;;11.80;96.70;;;;;;5051252;28;20564;-75
2023/01/08 01:38:28;;;;;;;17.73;15.30;;;11.80;96.70;;;;;;5035680;28;20052;-72
2023/01/08 01:40:57;;;;;;;18.77;15.93;;;11.80;96.70;;;;;;5026120;28;20052;-73
2023/01/08 01:43:37;;;;;;;23.05;15.20;;;11.80;96.70;;;;;;5057121;28;20055;-72
2023/01/08 01:46:19;;;;;;;17.63;14.77;;;11.80;96.70;;;;;;5041068;28;20589;-72
2023/01/08 01:48:50;;;;;;;16.55;14.25;;;11.80;96.70;;;;;;5037336;28;20550;-73
2023/01/08 01:51:19;;;;;;;17.67;13.93;;;11.80;96.70;;;;;;5012246;28;20045;-73
2023/01/08 01:53:48;;;;;;;15.98;13.77;;;11.80;96.70;;;;;;5053417;28;20100;-73
2023/01/08 01:56:18;;;;;;;18.52;15.57;;;11.80;96.70;;;;;;5021776;28;20426;-73
2023/01/08 01:58:46;;;;;;;20.88;14.75;;;11.90;96.70;;;;;;5031659;28;20406;-72
2023/01/08 02:01:14;;;;;;;16.42;13.77;;;11.90;96.70;;;;;;5039493;28;20036;-72
2023/01/08 02:03:43;;;;;;;18.65;14.35;;;11.90;96.70;;;;;;5055110;28;20044;-72
2023/01/08 02:06:22;;;;;;;16.25;13.63;;;11.80;96.70;;;;;;5048699;28;20730;-73
2023/01/08 02:09:00;;;;;;;17.27;13.20;;;11.80;96.70;;;;;;5049296;28;20068;-73
2023/01/08 02:11:40;;;;;;;16.33;14.45;;;11.90;96.70;;;;;;5039529;28;20055;-73
2023/01/08 02:14:15;;;;;;;14.43;12.30;;;11.80;96.70;;;;;;5053876;28;20505;-73
2023/01/08 02:16:52;;;;;;;14.25;12.75;;;11.80;96.70;;;;;;5053152;28;20040;-73
2023/01/08 02:19:36;;;;;;;15.88;12.88;;;11.90;96.70;;;;;;5032964;28;20052;-73
2023/01/08 02:22:16;;;;;;;14.15;12.45;;;11.90;96.70;;;;;;5039898;28;20080;-73
2023/01/08 02:24:54;;;;;;;17.80;13.23;;;11.80;96.70;;;;;;5039985;28;20051;-74
2023/01/08 02:27:27;;;;;;;16.42;13.05;;;11.80;96.70;;;;;;5037801;28;20045;-74
2023/01/08 02:29:56;;;;;;;14.27;12.77;;;11.80;96.70;;;;;;5046029;28;20053;-75
2023/01/08 02:32:26;;;;;;;17.65;13.45;;;11.90;96.70;;;;;;5046633;28;20045;-75
2023/01/08 02:34:55;;;;;;;15.80;12.57;;;11.90;96.70;;;;;;5036152;28;20044;-74
2023/01/08 02:37:23;;;;;;;14.15;11.80;;;11.90;96.70;;;;;;5039241;28;20048;-75
2023/01/08 02:40:10;;;;;;;16.02;13.02;;;11.90;96.70;;;;;;5041791;28;20052;-75
2023/01/08 02:42:45;;;;;;;15.32;12.23;;;11.80;96.70;;;;;;5038801;28;20585;-74
2023/01/08 02:45:24;;;;;;;14.18;12.15;;;11.80;96.70;;;;;;5050009;28;20124;-74
2023/01/08 02:47:59;;;;;;;13.63;11.88;;;11.80;96.70;;;;;;5044453;28;20530;-74
2023/01/08 02:50:32;;;;;;;16.55;12.90;;;11.80;96.70;;;;;;5046332;28;20490;-76
2023/01/08 02:53:03;;;;;;;15.07;12.52;;;11.80;96.70;;;;;;5035432;28;20057;-74
2023/01/08 02:55:33;;;;;;;16.98;13.88;;;11.80;96.70;;;;;;5051681;28;20037;-75
2023/01/08 02:58:04;;;;;;;15.60;13.23;;;11.80;96.70;;;;;;5024430;28;20102;-74
2023/01/08 03:00:33;;;;;;;14.52;12.88;;;11.80;96.70;;;;;;5040395;28;20162;-74
2023/01/08 03:03:08;;;;;;;17.30;15.15;;;11.80;96.70;;;;;;5022469;28;20682;-74
2023/01/08 03:05:40;;;;;;;19.13;14.57;;;11.80;96.70;;;;;;5042092;28;20071;-75
2023/01/08 03:08:09;;;;;;;17.52;15.57;;;11.80;96.70;;;;;;5032722;28;20056;-74
2023/01/08 03:10:40;;;;;;;16.88;15.05;;;11.80;96.70;;;;;;5026442;28;20140;-73
2023/01/08 03:13:14;;;;;;;16.65;14.18;;;11.70;96.70;;;;;;5053288;28;20047;-73
2023/01/08 03:15:46;;;;;;;18.45;15.80;;;11.70;96.70;;;;;;5041196;28;20097;-73
2023/01/08 03:18:20;;;;;;;19.17;15.52;;;11.70;96.70;;;;;;5038155;28;20041;-74
2023/01/08 03:20:49;;;;;;;18.95;15.27;;;11.70;96.70;;;;;;5044011;28;20457;-73
2023/01/08 03:23:20;;;;;;;17.20;14.55;;;11.70;96.70;;;;;;5045140;28;20477;-73
2023/01/08 03:25:48;;;;;;;16.65;13.45;;;11.70;96.70;;;;;;5023016;28;20049;-73
2023/01/08 03:28:22;;;;;;;17.15;14.98;;;11.70;96.70;;;;;;5029587;28;20140;-73
2023/01/08 03:30:52;;;;;;;16.95;14.50;;;11.70;96.70;;;;;;5037431;28;20136;-73
2023/01/08 03:33:23;;;;;;;17.30;14.18;;;11.70;96.70;;;;;;5042983;28;20076;-73
2023/01/08 03:35:54;;;;;;;18.55;14.80;;;11.70;96.70;;;;;;5045804;28;20045;-74
2023/01/08 03:38:25;;;;;;;16.95;14.60;;;11.70;96.70;;;;;;5042233;28;20051;-75
2023/01/08 03:40:56;;;;;;;16.65;14.18;;;11.80;96.70;;;;;;5044282;28;20651;-74
2023/01/08 03:43:28;;;;;;;14.77;12.68;;;11.80;96.70;;;;;;5051918;28;20047;-75
2023/01/08 03:46:00;;;;;;;15.50;13.90;;;11.80;96.70;;;;;;5041337;28;20056;-75
2023/01/08 03:48:31;;;;;;;15.52;13.10;;;11.80;96.70;;;;;;5040183;28;20045;-74
2023/01/08 03:50:59;;;;;;;17.65;14.13;;;11.80;96.70;;;;;;5042563;28;20037;-74
2023/01/08 03:53:27;;;;;;;16.45;13.95;;;11.80;96.70;;;;;;5029161;28;20482;-75
2023/01/08 03:55:57;;;;;;;15.70;13.25;;;11.80;96.70;;;;;;5062378;28;20157;-74
2023/01/08 03:58:26;;;;;;;14.50;12.90;;;11.80;96.70;;;;;;5060219;28;20076;-74
2023/01/08 04:00:54;;;;;;;14.55;12.95;;;11.80;96.70;;;;;;5039950;28;20047;-74
2023/01/08 04:03:23;;;;;;;16.65;13.68;;;11.80;96.70;;;;;;5028667;28;20553;-75
2023/01/08 04:05:51;;;;;;;15.88;13.38;;;11.80;96.70;;;;;;5060753;28;20456;-74
2023/01/08 04:08:19;;;;;;;14.32;12.48;;;11.80;96.70;;;;;;5039757;28;20489;-75
2023/01/08 04:10:47;;;;;;;14.80;12.27;;;11.80;96.70;;;;;;5040667;28;20076;-75
2023/01/08 04:13:15;;;;;;;15.00;12.65;;;11.70;96.70;;;;;;5032691;28;20052;-74
2023/01/08 04:15:48;;;;;;;17.33;12.95;;;11.70;96.70;;;;;;5045206;28;20050;-75
2023/01/08 04:18:17;;;;;;;15.38;13.40;;;11.70;96.70;;;;;;5045230;28;20782;-74
2023/01/08 04:20:45;;;;;;;13.25;11.60;;;11.70;96.70;;;;;;5038561;28;20041;-75
2023/01/08 04:23:14;;;;;;;15.13;12.85;;;11.70;96.70;;;;;;5039199;28;20052;-75
2023/01/08 04:25:41;;;;;;;15.00;12.65;;;11.60;96.70;;;;;;5051727;28;20093;-74
2023/01/08 04:28:09;;;;;;;13.73;12.02;;;11.60;96.70;;;;;;5047873;28;20045;-74
2023/01/08 04:30:37;;;;;;;12.20;10.95;;;11.60;96.70;;;;;;5025739;28;20384;-74
2023/01/08 04:33:07;;;;;;;14.63;11.07;;;11.50;96.70;;;;;;5043449;28;20047;-74
2023/01/08 04:35:35;;;;;;;12.93;11.18;;;11.50;96.70;;;;;;5025768;28;20094;-74
2023/01/08 04:38:03;;;;;;;11.50;10.30;;;11.50;96.70;;;;;;5040853;28;20045;-75
2023/01/08 04:40:32;;;;;;;14.57;10.60;;;11.50;96.70;;;;;;5053168;28;20064;-75
2023/01/08 04:43:00;;;;;;;14.35;11.32;;;11.50;96.70;;;;;;5028942;28;20652;-74
2023/01/08 04:45:28;;;;;;;13.55;10.75;;;11.50;96.70;;;;;;5054093;28;20483;-74
2023/01/08 04:48:02;;;;;;;12.45;10.05;;;11.50;96.70;;;;;;5047969;28;20049;-75
2023/01/08 04:50:31;;;;;;;12.85;10.15;;;11.50;96.70;;;;;;5036520;28;20044;-75
2023/01/08 04:52:59;;;;;;;11.40;10.20;;;11.50;96.70;;;;;;5033560;28;20051;-75
2023/01/08 04:55:27;;;;;;;12.43;10.07;;;11.40;96.70;;;;;;5046704;28;20506;-75
2023/01/08 04:57:55;;;;;;;12.85;10.20;;;11.40;96.70;;;;;;5014736;28;20562;-76
2023/01/08 05:00:23;;;;;;;12.70;10.93;;;11.40;96.70;;;;;;5034860;28;20052;-74
2023/01/08 05:02:51;;;;;;;12.25;10.20;;;11.30;96.70;;;;;;5047014;28;20037;-74
2023/01/08 05:05:20;;;;;;;12.25;10.95;;;11.10;96.70;;;;;;5042327;28;20057;-74
2023/01/08 05:07:49;;;;;;;12.48;10.48;;;11.10;96.70;;;;;;5043780;28;20037;-74
2023/01/08 05:10:18;;;;;;;11.30;10.10;;;11.20;96.70;;;;;;5040015;28;20048;-73
2023/01/08 05:12:46;;;;;;;12.85;10.65;;;11.30;96.70;;;;;;5041528;28;20041;-74
2023/01/08 05:15:14;;;;;;;13.65;11.23;;;11.30;96.70;;;;;;5028716;28;20045;-73
2023/01/08 05:17:43;;;;;;;13.75;10.93;;;11.30;96.70;;;;;;5056922;28;20041;-74
2023/01/08 05:20:11;;;;;;;15.02;10.95;;;11.30;96.70;;;;;;5043983;28;20121;-74
2023/01/08 05:22:39;;;;;;;11.55;10.27;;;11.30;96.70;;;;;;5044904;28;20037;-74
2023/01/08 05:25:09;;;;;;;12.23;10.32;;;11.30;96.70;;;;;;5038714;28;20479;-73
2023/01/08 05:27:38;;;;;;;13.20;11.02;;;11.40;96.70;;;;;;5061229;28;20576;-73
2023/01/08 05:30:07;;;;;;;11.75;10.50;;;11.30;96.70;;;;;;5041830;28;20032;-73
2023/01/08 05:32:35;;;;;;;11.73;10.05;;;11.40;96.70;;;;;;5038939;28;20051;-73
2023/01/08 05:35:04;;;;;;;14.93;10.57;;;11.40;96.70;;;;;;5055311;28;20437;-74
2023/01/08 05:37:33;;;;;;;12.15;9.88;;;11.40;96.70;;;;;;5054382;28;20489;-73
2023/01/08 05:40:02;;;;;;;10.30;9.23;;;11.40;96.70;;;;;;5030888;28;20553;-73
2023/01/08 05:42:33;;;;;;;10.18;8.98;;;11.40;96.70;;;;;;5055836;28;20557;-74
2023/01/08 05:45:01;;;;;;;10.30;9.05;;;11.40;96.70;;;;;;5050902;28;20044;-73
2023/01/08 05:47:30;;;;;;;10.07;8.73;;;11.50;96.70;;;;;;5058613;28;20421;-73
2023/01/08 05:49:58;;;;;;;14.00;10.15;;;11.40;96.70;;;;;;5045962;28;20067;-74
2023/01/08 05:52:28;;;;;;;11.07;8.55;;;11.40;96.70;;;;;;5051973;28;20044;-73
2023/01/08 05:54:58;;;;;;;10.65;9.38;;;11.40;96.70;;;;;;5038315;28;20616;-73
2023/01/08 05:57:27;;;;;;;9.30;7.95;;;11.40;96.70;;;;;;5057046;28;20041;-73
2023/01/08 05:59:57;;;;;;;10.38;9.13;;;11.50;96.70;;;;;;5034744;28;20194;-73
2023/01/08 06:02:25;;;;;;;8.40;7.50;;;11.40;96.70;;;;;;5035427;28;20052;-74
2023/01/08 06:04:53;;;;;;;9.02;6.78;;;11.40;96.70;;;;;;5040066;28;20170;-74
2023/01/08 06:07:21;;;;;;;9.40;6.22;;;11.40;96.70;;;;;;5033836;28;20614;-73
2023/01/08 06:09:50;;;;;;;7.97;6.75;;;11.40;96.70;;;;;;5016295;28;20060;-73
2023/01/08 06:12:18;;;;;;;7.95;6.40;;;11.40;96.70;;;;;;5033969;28;20037;-73
2023/01/08 06:14:46;;;;;;;9.13;6.95;;;11.30;96.70;;;;;;5019404;28;20046;-74
2023/01/08 06:17:16;;;;;;;9.50;6.63;;;11.30;96.70;;;;;;5033594;28;20053;-73
2023/01/08 06:19:46;;;;;;;8.68;6.25;;;11.30;96.70;;;;;;5031442;28;20514;-73
2023/01/08 06:22:14;;;;;;;7.63;6.65;;;11.20;96.70;;;;;;5022371;28;20056;-73
2023/01/08 06:24:42;;;;;;;7.25;6.40;;;11.20;96.70;;;;;;5035858;28;20036;-73
2023/01/08 06:27:11;;;;;;;9.63;6.57;;;11.20;96.70;;;;;;5014958;28;20206;-73
2023/01/08 06:29:39;;;;;;;7.53;6.35;;;11.20;96.70;;;;;;4996798;28;20037;-73
2023/01/08 06:32:08;;;;;;;8.25;6.70;;;11.20;96.70;;;;;;5004653;28;20056;-73
2023/01/08 06:34:38;;;;;;;8.88;6.80;;;11.20;96.70;;;;;;5012472;28;20053;-74
2023/01/08 06:37:06;;;;;;;7.90;6.70;;;11.10;96.70;;;;;;5023749;28;20050;-74
2023/01/08 06:39:34;;;;;;;9.15;6.68;;;11.10;96.70;;;;;;4992465;28;20041;-74
2023/01/08 06:42:03;;;;;;;8.90;6.13;;;11.10;96.70;;;;;;5018771;28;20076;-75
2023/01/08 06:44:31;;;;;;;6.88;6.13;;;11.10;96.70;;;;;;4996879;28;20037;-76
2023/01/08 06:47:00;;;;;;;6.55;5.85;;;11.10;96.70;;;;;;5018972;28;20057;-74
2023/01/08 06:49:28;;;;;;;7.97;6.13;;;11.10;96.70;;;;;;5026327;28;20037;-73
2023/01/08 06:51:58;;;;;;;8.63;7.15;;;11.10;96.70;;;;;;5027489;28;20366;-73
2023/01/08 06:54:27;;;;;;;8.93;6.22;;;11.10;96.70;;;;;;5026428;28;20049;-74
2023/01/08 06:56:55;;;;;;;8.57;6.13;;;11.10;96.70;;;;;;5045375;28;20048;-74
2023/01/08 06:59:24;;;;;;;7.25;6.35;;;11.10;96.70;;;;;;5041690;28;20076;-74
2023/01/08 07:01:52;;;;;;;6.75;5.60;;;11.10;96.70;;;;;;5044341;28;20037;-73
2023/01/08 07:04:21;;;;;;;7.15;5.72;;;11.10;96.70;;;;;;5026509;28;20041;-73
2023/01/08 07:06:49;;;;;;;6.47;5.72;;;11.10;96.70;;;;;;5024322;28;20853;-73
2023/01/08 07:09:19;;;;;;;5.72;4.95;;;11.10;96.70;;;;;;5028129;28;20588;-74
2023/01/08 07:11:47;;;;;;;6.43;5.43;;;11.20;96.70;;;;;;5027234;28;20045;-73
2023/01/08 07:14:16;;;;;;;8.02;5.63;;;11.30;96.70;;;;;;5027121;28;21353;-73
2023/01/08 07:16:44;;;;;;;7.88;5.70;;;11.30;96.70;;;;;;5043047;28;20045;-74
2023/01/08 07:19:12;;;;;;;6.05;5.45;;;11.40;96.70;;;;;;5032028;28;20083;-73
2023/01/08 07:21:41;;;;;;;6.78;5.60;;;11.40;96.70;;;;;;5045960;28;20128;-73
2023/01/08 07:24:09;;;;;;;6.70;5.68;;;11.50;96.70;;;;;;5026607;28;20045;-73
2023/01/08 07:26:39;;;;;;;7.63;5.85;;;11.50;96.70;;;;;;5025693;28;20051;-73
2023/01/08 07:29:08;;;;;;;7.78;6.25;;;11.50;96.70;;;;;;5017599;28;20052;-72
2023/01/08 07:31:36;;;;;;;6.60;5.93;;;11.60;96.70;;;;;;5045068;28;20478;-73
2023/01/08 07:34:05;;;;;;;7.38;6.20;;;11.60;96.70;;;;;;5018965;28;20053;-75
2023/01/08 07:36:33;;;;;;;6.57;5.82;;;11.60;96.70;;;;;;5036505;28;20044;-74
2023/01/08 07:39:02;;;;;;;7.75;6.82;;;11.60;96.70;;;;;;5018015;28;20068;-75
2023/01/08 07:41:30;;;;;;;7.60;6.65;;;11.70;96.70;;;;;;5029215;28;20045;-75
2023/01/08 07:44:00;;;;;;;10.40;8.02;;;11.70;96.70;;;;;;5017571;28;20045;-74
2023/01/08 07:46:29;;;;;;;9.40;6.78;;;11.80;96.70;;;;;;5029695;28;20230;-73
2023/01/08 07:48:58;;;;;;;8.48;6.90;;;11.80;96.70;;;;;;5006103;28;20053;-73
2023/01/08 07:51:26;;;;;;;7.38;6.30;;;11.90;96.70;;;;;;4993068;28;20050;-74
2023/01/08 07:53:55;;;;;;;8.20;6.50;;;11.90;96.70;;;;;;5025465;28;20049;-73
2023/01/08 07:56:24;;;;;;;6.93;6.18;;;12.00;96.70;;;;;;5022761;28;20658;-74
2023/01/08 07:58:53;;;;;;;6.30;5.32;;;12.00;96.70;;;;;;5026164;28;20059;-74
2023/01/08 08:01:24;;;;;;;7.13;5.55;;;11.90;96.70;;;;;;5036663;28;20086;-74
2023/01/08 08:03:53;;;;;;;7.13;6.28;;;11.80;96.70;;;;;;5044467;28;20072;-74
2023/01/08 08:06:21;;;;;;;8.20;6.57;;;11.90;96.70;;;;;;5025644;28;20072;-75
2023/01/08 08:08:50;;;;;;;7.15;6.22;;;11.90;96.70;;;;;;5027915;28;20087;-73
2023/01/08 08:11:18;;;;;;;7.70;6.05;;;11.80;96.70;;;;;;5039484;28;20049;-73
2023/01/08 08:13:49;;;;;;;9.15;6.03;;;11.80;96.70;;;;;;5057024;28;20135;-73
2023/01/08 08:16:22;;;;;;;6.88;6.13;;;11.80;96.70;;;;;;5033849;28;20112;-73
2023/01/08 08:18:50;;;;;;;6.32;5.70;;;11.90;96.70;;;;;;5046983;28;20064;-74
2023/01/08 08:21:19;;;;;;;6.30;5.70;;;11.90;96.70;;;;;;5047182;28;20079;-73
2023/01/08 08:23:47;;;;;;;5.53;4.93;;;11.80;96.70;;;;;;5042552;28;20064;-73
2023/01/08 08:26:15;;;;;;;7.30;5.18;;;11.80;96.70;;;;;;5039295;28;20053;-73
2023/01/08 08:28:44;;;;;;;6.38;5.75;;;11.80;96.70;;;;;;5026350;28;20041;-72
2023/01/08 08:31:12;;;;;;;6.03;5.43;;;11.80;96.70;;;;;;5045544;28;20051;-73
2023/01/08 08:33:42;;;;;;;6.00;5.38;;;11.80;96.70;;;;;;5046052;28;20041;-74
2023/01/08 08:36:11;;;;;;;5.90;5.30;;;11.90;96.70;;;;;;5059852;28;20129;-73
2023/01/08 08:38:39;;;;;;;5.60;4.97;;;11.90;96.70;;;;;;5062056;28;20111;-74
2023/01/08 08:41:07;;;;;;;6.53;5.80;;;12.00;96.70;;;;;;5046109;28;20041;-74
2023/01/08 08:43:36;;;;;;;7.35;5.47;;;12.00;96.70;;;;;;5028698;28;20040;-75
2023/01/08 08:46:04;;;;;;;7.15;5.45;;;12.10;96.70;;;;;;5044785;28;21160;-74
2023/01/08 08:48:33;;;;;;;7.85;7.05;;;12.10;96.70;;;;;;5053034;28;21036;-75
2023/01/08 08:51:05;;;;;;;9.30;7.15;;;12.20;96.70;;;;;;5045102;28;20073;-74
2023/01/08 08:53:34;;;;;;;8.43;6.00;;;12.20;96.70;;;;;;5037892;28;20044;-74
2023/01/08 08:56:03;;;;;;;8.30;6.97;;;12.20;96.70;;;;;;5063093;28;20040;-74
2023/01/08 08:58:32;;;;;;;10.70;9.57;;;12.30;96.70;;;;;;5042550;28;20056;-74
2023/01/08 09:01:02;;;;;;;9.85;8.85;;;12.40;96.70;;;;;;5047659;28;20041;-73
2023/01/08 09:03:31;;;;;;;10.02;8.95;;;12.30;96.70;;;;;;5043961;28;20135;-73
2023/01/08 09:05:59;;;;;;;10.40;8.70;;;12.30;96.70;;;;;;5016297;28;20049;-74
2023/01/08 09:08:29;;;;;;;9.63;8.27;;;12.40;96.70;;;;;;5057361;28;20059;-74
2023/01/08 09:10:58;;;;;;;9.77;7.53;;;12.40;96.70;;;;;;5032248;28;20048;-74
2023/01/08 09:13:26;;;;;;;9.32;8.15;;;12.40;96.70;;;;;;5049347;28;20051;-74
2023/01/08 09:15:57;;;;;;;9.77;7.68;;;12.40;96.70;;;;;;5053909;28;20513;-74
2023/01/08 09:18:26;;;;;;;9.20;7.97;;;12.40;96.70;;;;;;5035969;28;20060;-74
2023/01/08 09:20:54;;;;;;;10.35;8.93;;;12.50;96.70;;;;;;5043525;28;20485;-74
2023/01/08 09:23:23;;;;;;;10.13;8.13;;;12.60;96.70;;;;;;5043498;28;20033;-74
2023/01/08 09:26:00;;;;;;;10.63;8.57;;;12.70;96.70;;;;;;5025613;28;20037;-74
2023/01/08 09:28:28;;;;;;;12.25;8.82;;;12.70;96.70;;;;;;5043288;28;20045;-72
2023/01/08 09:31:01;;;;;;;9.85;8.38;;;12.80;96.70;;;;;;5027639;28;20041;-73
2023/01/08 09:33:30;;;;;;;9.50;7.22;;;12.80;96.70;;;;;;5025112;28;20057;-73
2023/01/08 09:35:58;;;;;;;9.05;7.07;;;12.80;96.70;;;;;;5044619;28;20044;-73
2023/01/08 09:38:27;;;;;;;8.40;5.97;;;12.90;96.70;;;;;;5044493;28;20044;-73
2023/01/08 09:41:01;;;;;;;6.65;5.72;;;12.90;96.70;;;;;;5028253;28;20466;-73
2023/01/08 09:43:31;;;;;;;6.72;5.40;;;13.00;96.70;;;;;;5062380;28;20445;-74
2023/01/08 09:46:04;;;;;;;9.63;6.13;;;13.10;96.70;;;;;;5032402;28;20207;-74
2023/01/08 09:48:35;;;;;;;6.03;5.05;;;13.20;96.70;;;;;;5034667;28;20052;-73
2023/01/08 09:51:07;;;;;;;7.82;5.20;;;13.30;96.70;;;;;;5044382;28;20045;-74
2023/01/08 09:53:36;;;;;;;7.43;5.03;;;13.30;96.70;;;;;;5035355;28;20056;-74
2023/01/08 09:56:13;;;;;;;7.50;4.85;;;13.40;96.70;;;;;;5044096;28;20468;-74
2023/01/08 09:58:44;;;;;;;4.60;4.20;;;13.50;96.70;;;;;;5040628;28;20179;-75
2023/01/08 10:01:14;;;;;;;5.30;4.50;;;13.50;96.70;;;;;;5039298;28;20049;-75
2023/01/08 10:03:46;;;;;;;5.50;4.30;;;13.50;96.70;;;;;;5040122;28;20049;-75
2023/01/08 10:06:16;;;;;;;7.32;4.28;;;13.60;96.70;;;;;;5034657;28;20055;-76
2023/01/08 10:08:44;;;;;;;6.05;4.43;;;13.60;96.70;;;;;;5060321;28;20048;-75
2023/01/08 10:11:20;;;;;;;8.45;4.97;;;13.60;96.70;;;;;;5053522;28;20592;-76
2023/01/08 10:13:52;;;;;;;5.90;4.25;;;13.60;96.70;;;;;;5055801;28;20047;-76
2023/01/08 10:16:27;;;;;;;8.27;4.40;;;13.60;96.70;;;;;;5038012;28;20500;-75
2023/01/08 10:18:56;;;;;;;6.75;3.97;;;13.70;96.70;;;;;;5059451;28;20040;-74
2023/01/08 10:21:29;;;;;;;9.32;7.15;;;13.70;96.70;;;;;;5044056;28;20872;-74
2023/01/08 10:23:57;;;;;;;8.52;6.03;;;13.70;96.70;;;;;;5040182;28;20047;-74
2023/01/08 10:26:32;;;;;;;8.73;5.53;;;13.70;96.70;;;;;;5042962;28;20520;-74
2023/01/08 10:29:17;;;;;;;9.70;7.22;;;13.80;96.70;;;;;;5039723;28;20048;-76
2023/01/08 10:31:48;;;;;;;8.45;6.18;;;13.80;96.70;;;;;;5008626;28;20533;-73
2023/01/08 10:34:26;;;;;;;16.75;12.02;;;13.80;96.70;;;;;;5051265;28;20086;-73
2023/01/08 10:36:55;;;;;;;9.90;7.75;;;13.90;96.70;;;;;;5050894;28;20036;-74
2023/01/08 10:39:26;;;;;;;10.77;7.70;;;13.90;96.70;;;;;;5049600;28;20116;-74
2023/01/08 10:42:02;;;;;;;8.15;6.40;;;13.90;96.70;;;;;;5053499;28;20040;-75
2023/01/08 10:44:31;;;;;;;;;;;14.00;96.70;;;;;;5040385;28;20142;-74
2023/01/08 10:47:00;;;;;;;12.35;7.45;;;14.00;96.70;;;;;;5043209;28;20295;-73
2023/01/08 10:49:33;;;;;;;7.88;6.35;;;13.90;96.70;;;;;;5040345;28;20043;-74
2023/01/08 10:52:01;;;;;;;7.68;6.40;;;14.00;96.70;;;;;;5034277;28;20132;-73
2023/01/08 10:54:33;;;;;;;7.32;5.32;;;14.00;96.70;;;;;;5042479;28;20036;-74
2023/01/08 10:57:17;;;;;;;6.18;5.25;;;14.00;96.70;;;;;;5042917;28;20079;-73
2023/01/08 10:59:45;;;;;;;8.23;4.47;;;14.00;96.70;;;;;;5042285;28;20124;-74
2023/01/08 11:02:22;;;;;;;5.57;4.68;;;14.00;96.70;;;;;;5040088;28;21264;-73
2023/01/08 11:04:52;;;;;;;9.50;6.38;;;14.00;96.70;;;;;;5039029;28;20045;-72
2023/01/08 11:07:22;;;;;;;6.97;4.72;;;14.10;96.70;;;;;;5037849;28;20498;-72
2023/01/08 11:09:52;;;;;;;7.40;5.43;;;14.10;96.70;;;;;;5058257;28;20080;-73
2023/01/08 11:12:36;;;;;;;7.78;4.57;;;14.10;96.70;;;;;;5022994;28;20057;-73
2023/01/08 11:15:06;;;;;;;7.72;4.32;;;14.10;96.70;;;;;;5033976;28;20082;-73
2023/01/08 11:17:34;;;;;;;6.55;4.20;;;14.20;96.70;;;;;;5059567;28;20115;-72
2023/01/08 11:20:19;;;;;;;8.15;5.70;;;14.20;96.70;;;;;;5042155;28;20047;-74
2023/01/08 11:22:47;;;;;;;8.85;6.10;;;14.20;96.70;;;;;;5043494;28;20072;-73
2023/01/08 11:25:21;;;;;;;12.05;7.53;;;14.20;96.70;;;;;;5046312;28;20064;-74
2023/01/08 11:27:52;;;;;;;10.38;8.40;;;14.30;96.70;;;;;;5039643;28;20192;-74
2023/01/08 11:30:24;;;;;;;9.65;8.07;;;14.20;96.70;;;;;;5041435;28;20106;-73
2023/01/08 11:32:59;;;;;;;9.32;7.70;;;14.20;96.70;;;;;;5042284;28;20465;-73
2023/01/08 11:35:28;;;;;;;9.48;8.02;;;14.30;96.70;;;;;;5049443;28;20073;-73
2023/01/08 11:37:58;;;;;;;8.93;8.00;;;14.30;96.70;;;;;;5053118;28;20041;-73
2023/01/08 11:40:38;;;;;;;9.38;7.32;;;14.30;96.70;;;;;;5051509;28;20043;-74
2023/01/08 11:43:19;;;;;;;7.45;5.82;;;14.30;96.70;;;;;;5021362;28;20071;-73
2023/01/08 11:46:09;;;;;;;9.50;6.82;;;14.30;96.70;;;;;;5047310;28;20071;-73
2023/01/08 11:49:06;;;;;;;8.63;6.55;;;14.30;96.70;;;;;;5045582;28;20053;-74
2023/01/08 11:51:50;;;;;;;8.93;7.40;;;14.30;96.70;;;;;;5044229;28;20498;-73
2023/01/08 11:54:35;;;;;;;7.47;5.80;;;14.40;96.70;;;;;;5036215;28;20160;-73
2023/01/08 11:57:16;;;;;;;10.25;6.57;;;14.40;96.70;;;;;;5048134;28;20128;-74
2023/01/08 11:59:58;;;;;;;8.93;6.10;;;14.40;96.70;;;;;;5010373;28;20261;-73
2023/01/08 12:02:42;;;;;;;8.70;5.50;;;14.40;96.70;;;;;;5047834;28;20045;-74
2023/01/08 12:05:25;;;;;;;7.25;5.30;;;14.30;96.70;;;;;;5046011;28;20068;-73
2023/01/08 12:08:02;;;;;;;9.18;6.07;;;14.20;96.70;;;;;;5045763;28;20414;-74
2023/01/08 12:10:47;;;;;;;10.23;6.80;;;14.20;96.70;;;;;;5060003;28;20041;-73
2023/01/08 12:13:35;;;;;;;18.42;14.23;;;14.10;96.70;;;;;;5052962;28;20036;-73
2023/01/08 12:16:18;;;;;;;8.57;7.22;;;14.00;96.70;;;;;;5046803;28;20068;-74
2023/01/08 12:19:06;;;;;;;8.65;6.65;;;14.00;96.70;;;;;;5039788;28;20056;-73
2023/01/08 12:21:46;;;;;;;11.90;9.50;;;14.00;96.70;;;;;;5043714;28;20052;-74
2023/01/08 12:24:30;;;;;;;14.82;11.50;;;13.90;96.70;;;;;;5033958;28;20048;-73
2023/01/08 12:27:07;;;;;;;10.85;8.38;;;13.90;96.70;;;;;;5029934;28;20076;-74
2023/01/08 12:29:51;;;;;;;11.45;8.63;;;13.90;96.70;;;;;;5051714;28;20087;-73
2023/01/08 12:32:28;;;;;;;12.90;8.88;;;13.90;96.70;;;;;;5030211;28;20127;-73
2023/01/08 12:35:01;;;;;;;8.80;7.20;;;14.00;96.70;;;;;;5044775;28;20453;-73
2023/01/08 12:37:35;;;;;;;8.90;6.85;;;14.10;96.70;;;;;;5026819;28;20049;-74
2023/01/08 12:40:12;;;;;;;9.82;7.22;;;14.20;96.70;;;;;;5053749;28;20326;-74
2023/01/08 12:42:43;;;;;;;13.30;10.80;;;14.20;96.70;;;;;;5027953;28;20048;-74
2023/01/08 12:45:24;;;;;;;15.02;11.65;;;14.30;96.70;;;;;;5021508;28;21467;-74
2023/01/08 12:47:59;;;;;;;11.07;7.00;;;14.30;96.70;;;;;;5040746;28;20124;-74
2023/01/08 12:50:37;;;;;;;7.68;5.13;;;14.20;96.70;;;;;;5049144;28;20642;-72
2023/01/08 12:53:12;;;;;;;6.38;5.15;;;14.20;96.70;;;;;;5052995;28;20049;-74
2023/01/08 12:55:48;;;;;;;7.70;5.68;;;14.10;96.70;;;;;;5026624;28;20529;-74
2023/01/08 12:58:31;;;;;;;8.98;5.43;;;14.00;96.70;;;;;;5047051;28;20041;-73